Timeline UpdatesTrip UpdatesNews PostsPvt Posts♥♥Travel TipsAdmin PostsConv PostsFollowed PostsChat RequestsBlog PostsPNR Posts

Disclaimer
Search
 
 
Thu Dec 18, 2014 17:01:51 ISTHomeTrainsΣChainsAtlasPNRForumGalleryNewsFAQTripsMembersLoginFeedback
PNR Super Search

Ticket PNR Status Inquiry - PNR: 660-xxxxxxx (PRS)

OLD STATUS

Status Last Updated on: Jun 10 2012 (6:53AM) IST

Date of Journey: Mon Jun 11, 2012   Class: Sleeper - SL
Passenger 1: Confirmed (Booking Status: RAC 22,RLGN)
Passenger 2: Confirmed (Booking Status: RAC 23,RLGN)
Chart NOT Prepared

Samaleshwari Express/18006

Travel Time: 9h 17m    16 halts    Distance: 443 km    Avg Speed: 47 km/hr
Type: Mail/Express
Zone: SER/South Eastern
Departs @ 21:08 (Avg 34m late)
Platform# 2
SMTWTFS
Raj Gangpur/GP 
Arrives @ 06:25 +1 night (Avg 7m late)
Platform# 17
SMTWTFS
Kolkata Howrah Junction/HWH 

16 halts. 81 intermediate Stations between Raj Gangpur and Kolkata Howrah Junction

Show ALL intermediate Stations  Show Old Time-Table

#TrkCodeStation NameX/OArrivesAvgDepartsAvgHaltPFDay#KmSpeedElevZoneAddress
1/--/JDBJagdalpur (1)  -04:15+011-721.759569mECoRJagdalpur, Chhattisgarh
2/--/JYPJeypore (1)  05:21 05:20+105:22+41 2m11-657.334595mECoRJeypore, Odisha
3/--/KRPUKoraput Junction (3)06:35+107:00+525m11-616.346881mECoRkoraput ph.no. 06852-251502, Odisha
4/--|DMNJDamanjodi  07:26 07:25+1307:27+131 2m11-597.350897mECoRDamanjodi, Odisha
5|--|LKMRLaxmipur Road (1)  08:14 08:18+1408:15 08:20+161 2m11-554.946898mECoRLakshmipur, Odisha
6|--|TKRITikiri  08:44 08:48+1408:45 08:50+141 2m11-533.345827mECoRTikri, Odisha
7%==%RGDARayagada (3)10:50+611:10+720m31-443.337229mECoRRayagada ph.no 06856-222407, Odisha
8%==%SPRDSingapuram Road (2)  11:26 11:25+511:27+51 2m21-434.151248mECoRJaykaypur, Odisha
9%==%THVTherubaliX  11:39 11:38+1311:40+141 2m--1-424.765270mECoRRayagada, Odisha
10%==%MNGDMuniguda  12:14 12:13+1912:15+191 2m--1-388.775335mECoRMuniguda, Odisha
11%==%AMBAmbodala  12:36 12:35+2312:37+231 2m--1-363.771374mECoRState Highway 6, Odisha
12%==%NRLRNorla RoadX  13:01 12:58+2113:02 13:00+221 2m--1-338.750247mECoRKalahandi, Odisha
13%==%RPRDRupra RoadX  13:11 13:08+2313:12 13:10+231 2m--1-332.175233mECoRKalahandi, Odisha
14%==%KSNGKesinga (1)  13:31 13:23+2513:32 13:25+271 2m11-315.933183mECoRKesinga, Odisha
15%=-|TIGTitlagarh Junction (3)  13:55 13:50+1614:05 14:00+2010m11-301.967212mECoRTitlagarh, Odisha
16|--|BUDMBadmal  14:26 14:18+2614:27 14:20+271 2m--1-282.052209mECoRDumerbahal Rd, Odisha
17|--|SFCSaintala (2)  14:41 14:30+2514:42 14:32+261 2m11-273.374185mECoRNational Highway 201, Odisha
18|--|BLGRBalangir (3)  15:15 15:00+2615:20 15:05+325m--1-238.665210mECoRBolangir, Odisha
19|--|BRPLBarpali  16:01 15:58+3116:02 16:00+341 2m--1-181.577178mECoRBarpali, Odisha
20|--|BRGABargarh Road (3)  16:15+3516:20+395m--1-162.375185mECoRBargarh, Odisha
21|--|HKGHirakudX  16:44 16:48+4216:45 16:50+431 2m--1-127.27167mECoRBurla, Odisha
22|--|SBPSambalpur Junction (3)  17:50+418:20+630m11-119.818159mECoRSambalpur, Odisha
23|--|SBPDSambalpur Road  18:29 18:25+018:30 18:27+01 2m--1-118.254161mECoRSambalpur, Odisha
24|==!RGLRengali  18:54 18:50+1418:55+151 5m--1-97.529208mECoRState Highway 10, Odisha
25|==|JSGJharsuguda Junction (5)X  19:50+1320:00+2210m11-71.173236mSERJharsuguda, Odisha
26/==/BEHBagdihi (3)X  20:18 20:17+2620:19+261 2m--1-50.568257mSERState Highway 24 PH: 06640-286227, Odisha
27/==/BMBBamra (3)  20:34 20:33+2520:35+271 2m--1-34.669259mSERBamra PH : 06642-229268, Odisha
28/==/GPHGarpos (3)X  20:50 20:49+3220:51+321 2m--1-18.569281mSERSundargarh, Odisha
29/==/GPRaj Gangpur (3)»X  21:07+3321:08+341m210.050237mSERRaj Ganpur, Odisha
30/==/KXNKanshbahalX  21:19+3321:20+341m--19.242217mSERSundargarh, Odisha
31/==/KLGKalungaX  21:30+3021:31+331m--116.341203mSERSundargarh, Odisha
32/==/PPOPanposh (2)  21:42+3121:43+321m1123.821190mSERRourkela, Odisha
33/==/ROURourkela Junction (5)  22:00+2222:20+2320m5129.856198mSERRourkela, Odisha
34/==/BZRBisra  22:35+2622:36+271m--143.973224mSERSundargarh, Odisha
35/==/MOUManoharpur  22:57+2622:58+301m--169.668228mSERManoharpur, Jharkhand
36/==/CKPChakradharpur (3)  23:52+2223:59+237m21130.975235mSERChakradharpur (West Singhbhum), Jharkhand
37/==/RKSNRajkharsawan Junction (3)X  00:15+2600:16+261m--2150.957189mSERSaraikela Kharswan District, Jharkhand
38/==/SINISini Junction (3)X  00:33 00:32+2200:34+231 2m22166.239182mSERNational Highway 33, Jharkhand
39/==/TATATatanagar Junction (5)X  01:15+901:25+1010m42193.185164mSER91-657-2423026, Jharkhand
40/==/JGMJhargram (4)X  02:34 02:33+2502:35+251 2m--2289.15282mSERJhargram, West Bengal
41/==/KGPKharagpur Junction (10)X  03:20+1103:30+910m52328.26742mSERDist: West Medinipur, West Bengal
42/==/PKUPanskura Junction (6)  04:09 04:10+1504:10 04:12+141 2m--2372.6489mSERPanskura, West Bengal
43/==/BZNBagnan (4)  04:43 04:44+704:44 04:46+81 2m--2398.1558mSERBagnan, West Bengal
44/==/ULBUluberia (6)  04:59 05:00+1105:00 05:02+101 2m32411.03810mSERdist - howrah, West Bengal
45/==/SRCKolkata Santragachi Junction (6)  05:42 05:41+005:43+41 2m42435.8117mSERDist: Howrah - 711104, West Bengal
46/==/HWHKolkata Howrah Junction (23)•  06:25+7-172443.2-10mERHowrah 711101, West Bengal
Scroll to Top
Scroll to Bottom


Go to Mobile site